sensor_id;sensor_type;location;lat;lon;timestamp;pressure;altitude;pressure_sealevel;temperature;humidity
4012;BME280;2020;48.682;9.024;2023-04-10T00:01:39;96994.09;;;5.03;66.95
4012;BME280;2020;48.682;9.024;2023-04-10T00:04:05;96993.91;;;5.06;66.95
4012;BME280;2020;48.682;9.024;2023-04-10T00:06:31;96989.44;;;5.08;67.06
4012;BME280;2020;48.682;9.024;2023-04-10T00:08:57;96988.94;;;5.03;67.36
4012;BME280;2020;48.682;9.024;2023-04-10T00:11:23;96986.91;;;4.95;67.84
4012;BME280;2020;48.682;9.024;2023-04-10T00:13:49;96987.72;;;4.95;68.14
4012;BME280;2020;48.682;9.024;2023-04-10T00:16:14;96987.88;;;4.81;67.99
4012;BME280;2020;48.682;9.024;2023-04-10T00:18:39;96984.50;;;4.67;68.82
4012;BME280;2020;48.682;9.024;2023-04-10T00:21:05;96985.00;;;4.60;68.40
4012;BME280;2020;48.682;9.024;2023-04-10T00:23:30;96977.06;;;4.50;69.02
4012;BME280;2020;48.682;9.024;2023-04-10T00:26:02;96982.22;;;4.50;69.46
4012;BME280;2020;48.682;9.024;2023-04-10T00:28:27;96981.63;;;4.46;69.71
4012;BME280;2020;48.682;9.024;2023-04-10T00:30:52;96973.97;;;4.45;69.66
4012;BME280;2020;48.682;9.024;2023-04-10T00:33:18;96976.66;;;4.43;70.08
4012;BME280;2020;48.682;9.024;2023-04-10T00:35:43;96966.56;;;4.27;70.67
4012;BME280;2020;48.682;9.024;2023-04-10T00:38:08;96971.50;;;4.30;70.64
4012;BME280;2020;48.682;9.024;2023-04-10T00:40:33;96970.88;;;4.39;69.60
4012;BME280;2020;48.682;9.024;2023-04-10T00:42:59;96975.53;;;4.34;70.30
4012;BME280;2020;48.682;9.024;2023-04-10T00:45:24;96970.50;;;4.33;70.85
4012;BME280;2020;48.682;9.024;2023-04-10T00:47:50;96968.72;;;4.33;70.19
4012;BME280;2020;48.682;9.024;2023-04-10T00:50:16;96956.69;;;4.08;70.67
4012;BME280;2020;48.682;9.024;2023-04-10T00:52:42;96952.16;;;3.99;71.83
4012;BME280;2020;48.682;9.024;2023-04-10T00:55:07;96955.44;;;3.88;72.11
4012;BME280;2020;48.682;9.024;2023-04-10T00:57:33;96944.91;;;3.91;72.00
4012;BME280;2020;48.682;9.024;2023-04-10T00:59:59;96947.50;;;3.91;72.10
4012;BME280;2020;48.682;9.024;2023-04-10T01:02:25;96955.44;;;3.88;72.21
4012;BME280;2020;48.682;9.024;2023-04-10T01:04:50;96960.78;;;3.85;72.42
4012;BME280;2020;48.682;9.024;2023-04-10T01:07:37;96959.13;;;3.84;72.61
4012;BME280;2020;48.682;9.024;2023-04-10T01:10:17;96965.72;;;3.88;72.07
4012;BME280;2020;48.682;9.024;2023-04-10T01:12:52;96969.63;;;3.80;73.01
4012;BME280;2020;48.682;9.024;2023-04-10T01:15:20;96968.38;;;3.73;73.25
4012;BME280;2020;48.682;9.024;2023-04-10T01:18:08;96972.81;;;3.71;72.74
4012;BME280;2020;48.682;9.024;2023-04-10T01:20:37;96971.22;;;3.56;72.94
4012;BME280;2020;48.682;9.024;2023-04-10T01:25:53;96979.03;;;3.41;73.68
4012;BME280;2020;48.682;9.024;2023-04-10T01:31:12;96973.88;;;3.41;72.77
4012;BME280;2020;48.682;9.024;2023-04-10T01:33:47;96969.47;;;3.29;73.90
4012;BME280;2020;48.682;9.024;2023-04-10T01:36:20;96970.06;;;3.19;74.47
4012;BME280;2020;48.682;9.024;2023-04-10T01:38:47;96968.59;;;3.15;73.91
4012;BME280;2020;48.682;9.024;2023-04-10T01:41:14;96967.88;;;3.13;74.06
4012;BME280;2020;48.682;9.024;2023-04-10T01:43:40;96960.34;;;3.10;74.11
4012;BME280;2020;48.682;9.024;2023-04-10T01:46:06;96954.47;;;3.08;74.04
4012;BME280;2020;48.682;9.024;2023-04-10T01:48:32;96952.50;;;2.99;74.16
4012;BME280;2020;48.682;9.024;2023-04-10T01:51:02;96953.13;;;3.02;74.41
4012;BME280;2020;48.682;9.024;2023-04-10T01:53:29;96952.94;;;3.05;74.09
4012;BME280;2020;48.682;9.024;2023-04-10T01:55:55;96949.19;;;2.97;74.36
4012;BME280;2020;48.682;9.024;2023-04-10T01:58:21;96951.94;;;2.93;74.04
4012;BME280;2020;48.682;9.024;2023-04-10T02:00:46;96955.63;;;2.89;74.93
4012;BME280;2020;48.682;9.024;2023-04-10T02:03:12;96949.19;;;2.97;75.25
4012;BME280;2020;48.682;9.024;2023-04-10T02:08:25;96954.09;;;2.87;74.83
4012;BME280;2020;48.682;9.024;2023-04-10T02:11:03;96951.34;;;2.90;74.70
4012;BME280;2020;48.682;9.024;2023-04-10T02:13:35;96946.28;;;2.88;75.12
4012;BME280;2020;48.682;9.024;2023-04-10T02:16:06;96944.47;;;2.76;75.09
4012;BME280;2020;48.682;9.024;2023-04-10T02:18:33;96949.06;;;2.71;75.36
4012;BME280;2020;48.682;9.024;2023-04-10T02:21:00;96957.06;;;2.66;75.90
4012;BME280;2020;48.682;9.024;2023-04-10T02:23:25;96949.44;;;2.65;75.70
4012;BME280;2020;48.682;9.024;2023-04-10T02:25:50;96953.13;;;2.60;75.53
4012;BME280;2020;48.682;9.024;2023-04-10T02:28:16;96956.13;;;2.53;75.97
4012;BME280;2020;48.682;9.024;2023-04-10T02:30:41;96950.19;;;2.52;76.85
4012;BME280;2020;48.682;9.024;2023-04-10T02:33:06;96953.69;;;2.51;77.23
4012;BME280;2020;48.682;9.024;2023-04-10T02:35:32;96957.16;;;2.50;76.55
4012;BME280;2020;48.682;9.024;2023-04-10T02:37:58;96950.19;;;2.52;77.84
4012;BME280;2020;48.682;9.024;2023-04-10T02:40:23;96956.97;;;2.53;77.21
4012;BME280;2020;48.682;9.024;2023-04-10T02:42:48;96955.31;;;2.52;76.72
4012;BME280;2020;48.682;9.024;2023-04-10T02:45:14;96955.69;;;2.46;77.17
4012;BME280;2020;48.682;9.024;2023-04-10T02:47:39;96957.72;;;2.41;76.65
4012;BME280;2020;48.682;9.024;2023-04-10T02:50:05;96963.97;;;2.37;76.75
4012;BME280;2020;48.682;9.024;2023-04-10T02:52:30;96967.81;;;2.29;77.02
4012;BME280;2020;48.682;9.024;2023-04-10T02:54:55;96970.38;;;2.29;76.98
4012;BME280;2020;48.682;9.024;2023-04-10T02:57:21;96964.31;;;2.16;77.31
4012;BME280;2020;48.682;9.024;2023-04-10T02:59:49;96965.97;;;2.17;77.37
4012;BME280;2020;48.682;9.024;2023-04-10T03:02:15;96968.34;;;2.06;78.04
4012;BME280;2020;48.682;9.024;2023-04-10T03:04:40;96970.19;;;2.03;77.56
4012;BME280;2020;48.682;9.024;2023-04-10T03:07:06;96967.22;;;1.95;77.93
4012;BME280;2020;48.682;9.024;2023-04-10T03:09:31;96965.22;;;2.00;78.16
4012;BME280;2020;48.682;9.024;2023-04-10T03:11:56;96961.56;;;2.04;77.16
4012;BME280;2020;48.682;9.024;2023-04-10T03:14:21;96955.09;;;1.97;77.50
4012;BME280;2020;48.682;9.024;2023-04-10T03:16:47;96948.69;;;1.90;77.95
4012;BME280;2020;48.682;9.024;2023-04-10T03:19:13;96951.25;;;1.90;77.95
4012;BME280;2020;48.682;9.024;2023-04-10T03:21:38;96944.09;;;1.81;78.29
4012;BME280;2020;48.682;9.024;2023-04-10T03:24:04;96949.22;;;1.81;78.21
4012;BME280;2020;48.682;9.024;2023-04-10T03:26:30;96943.91;;;1.84;77.93
4012;BME280;2020;48.682;9.024;2023-04-10T03:28:55;96942.06;;;1.86;78.10
4012;BME280;2020;48.682;9.024;2023-04-10T03:31:21;96939.97;;;1.78;78.14
4012;BME280;2020;48.682;9.024;2023-04-10T03:33:46;96932.34;;;1.77;78.82
4012;BME280;2020;48.682;9.024;2023-04-10T03:36:11;96928.13;;;1.75;79.02
4012;BME280;2020;48.682;9.024;2023-04-10T03:38:36;96928.06;;;1.77;78.90
4012;BME280;2020;48.682;9.024;2023-04-10T03:41:02;96928.31;;;1.72;78.44
4012;BME280;2020;48.682;9.024;2023-04-10T03:43:28;96922.19;;;1.75;79.12
4012;BME280;2020;48.682;9.024;2023-04-10T03:45:54;96924.94;;;1.72;79.03
4012;BME280;2020;48.682;9.024;2023-04-10T03:48:20;96923.72;;;1.78;78.97
4012;BME280;2020;48.682;9.024;2023-04-10T03:50:45;96925.75;;;1.72;79.17
4012;BME280;2020;48.682;9.024;2023-04-10T03:53:10;96912.66;;;1.77;78.80
4012;BME280;2020;48.682;9.024;2023-04-10T03:55:35;96913.81;;;1.71;79.60
4012;BME280;2020;48.682;9.024;2023-04-10T03:58:02;96916.66;;;1.67;79.53
4012;BME280;2020;48.682;9.024;2023-04-10T04:00:28;96919.13;;;1.68;79.10
4012;BME280;2020;48.682;9.024;2023-04-10T04:02:53;96922.78;;;1.64;79.48
4012;BME280;2020;48.682;9.024;2023-04-10T04:05:19;96920.78;;;1.69;80.05
4012;BME280;2020;48.682;9.024;2023-04-10T04:07:44;96919.31;;;1.65;79.55
4012;BME280;2020;48.682;9.024;2023-04-10T04:10:10;96912.34;;;1.67;79.89
4012;BME280;2020;48.682;9.024;2023-04-10T04:12:35;96910.50;;;1.55;79.94
4012;BME280;2020;48.682;9.024;2023-04-10T04:15:00;96906.28;;;1.54;79.80
4012;BME280;2020;48.682;9.024;2023-04-10T04:17:26;96901.31;;;1.51;80.17
4012;BME280;2020;48.682;9.024;2023-04-10T04:19:51;96904.16;;;1.46;80.06
4012;BME280;2020;48.682;9.024;2023-04-10T04:22:16;96908.63;;;1.42;80.41
4012;BME280;2020;48.682;9.024;2023-04-10T04:24:42;96903.50;;;1.42;81.18
4012;BME280;2020;48.682;9.024;2023-04-10T04:27:07;96897.81;;;1.37;80.75
4012;BME280;2020;48.682;9.024;2023-04-10T04:29:32;96898.47;;;1.41;81.25
4012;BME280;2020;48.682;9.024;2023-04-10T04:31:57;96900.03;;;1.43;80.81
4012;BME280;2020;48.682;9.024;2023-04-10T04:34:23;96894.72;;;1.46;79.58
4012;BME280;2020;48.682;9.024;2023-04-10T04:36:48;96901.31;;;1.51;80.20
4012;BME280;2020;48.682;9.024;2023-04-10T04:39:13;96904.16;;;1.46;79.48
4012;BME280;2020;48.682;9.024;2023-04-10T04:41:38;96905.16;;;1.43;80.12
4012;BME280;2020;48.682;9.024;2023-04-10T04:44:04;96901.84;;;1.41;80.18
4012;BME280;2020;48.682;9.024;2023-04-10T04:46:30;96900.59;;;1.49;80.81
4012;BME280;2020;48.682;9.024;2023-04-10T04:48:55;96897.28;;;1.46;80.36
4012;BME280;2020;48.682;9.024;2023-04-10T04:51:21;96892.72;;;1.52;81.03
4012;BME280;2020;48.682;9.024;2023-04-10T04:53:46;96894.19;;;1.56;81.18
4012;BME280;2020;48.682;9.024;2023-04-10T04:56:11;96902.78;;;1.55;81.11
4012;BME280;2020;48.682;9.024;2023-04-10T04:58:36;96896.50;;;1.60;80.91
4012;BME280;2020;48.682;9.024;2023-04-10T05:01:02;96900.59;;;1.63;81.61
4012;BME280;2020;48.682;9.024;2023-04-10T05:03:27;96902.09;;;1.67;81.12
4012;BME280;2020;48.682;9.024;2023-04-10T05:05:53;96901.72;;;1.73;80.39
4012;BME280;2020;48.682;9.024;2023-04-10T05:08:18;96903.69;;;1.84;80.11
4012;BME280;2020;48.682;9.024;2023-04-10T05:10:44;96906.13;;;1.86;80.43
4012;BME280;2020;48.682;9.024;2023-04-10T05:13:09;96909.06;;;1.80;80.18
4012;BME280;2020;48.682;9.024;2023-04-10T05:15:35;96911.44;;;1.83;79.80
4012;BME280;2020;48.682;9.024;2023-04-10T05:18:00;96909.63;;;1.85;78.91
4012;BME280;2020;48.682;9.024;2023-04-10T05:20:25;96907.59;;;1.90;80.27
4012;BME280;2020;48.682;9.024;2023-04-10T05:22:51;96910.91;;;1.92;80.59
4012;BME280;2020;48.682;9.024;2023-04-10T05:25:17;96917.69;;;1.93;80.10
4012;BME280;2020;48.682;9.024;2023-04-10T05:27:42;96934.00;;;1.78;79.91
4012;BME280;2020;48.682;9.024;2023-04-10T05:30:08;96924.66;;;1.91;80.37
4012;BME280;2020;48.682;9.024;2023-04-10T05:32:33;96928.06;;;1.92;79.95
4012;BME280;2020;48.682;9.024;2023-04-10T05:34:58;96922.50;;;1.99;79.96
4012;BME280;2020;48.682;9.024;2023-04-10T05:37:24;96920.31;;;2.08;80.37
4012;BME280;2020;48.682;9.024;2023-04-10T05:39:49;96924.41;;;2.10;80.73
4012;BME280;2020;48.682;9.024;2023-04-10T05:42:14;96916.63;;;2.12;80.34
4012;BME280;2020;48.682;9.024;2023-04-10T05:44:40;96926.34;;;2.21;80.36
4012;BME280;2020;48.682;9.024;2023-04-10T05:47:05;96925.78;;;2.30;79.88
4012;BME280;2020;48.682;9.024;2023-04-10T05:49:31;96925.31;;;2.38;79.87
4012;BME280;2020;48.682;9.024;2023-04-10T05:51:57;96927.97;;;2.51;79.92
4012;BME280;2020;48.682;9.024;2023-04-10T05:54:22;96935.41;;;2.56;79.35
4012;BME280;2020;48.682;9.024;2023-04-10T05:56:47;96936.66;;;2.63;80.04
4012;BME280;2020;48.682;9.024;2023-04-10T05:59:13;96933.63;;;2.71;79.40
4012;BME280;2020;48.682;9.024;2023-04-10T06:01:39;96941.81;;;2.77;79.66
4012;BME280;2020;48.682;9.024;2023-04-10T06:04:04;96932.69;;;2.86;78.67
4012;BME280;2020;48.682;9.024;2023-04-10T06:06:30;96936.53;;;2.93;79.81
4012;BME280;2020;48.682;9.024;2023-04-10T06:08:57;96938.31;;;3.06;79.10
4012;BME280;2020;48.682;9.024;2023-04-10T06:11:22;96932.59;;;3.15;78.89
4012;BME280;2020;48.682;9.024;2023-04-10T06:13:47;96928.50;;;3.26;78.51
4012;BME280;2020;48.682;9.024;2023-04-10T06:16:12;96932.38;;;3.33;79.62
4012;BME280;2020;48.682;9.024;2023-04-10T06:18:41;96929.00;;;3.45;79.78
4012;BME280;2020;48.682;9.024;2023-04-10T06:21:07;96932.09;;;3.50;78.86
4012;BME280;2020;48.682;9.024;2023-04-10T06:23:32;96932.09;;;3.63;78.71
4012;BME280;2020;48.682;9.024;2023-04-10T06:25:59;96933.06;;;3.75;78.07
4012;BME280;2020;48.682;9.024;2023-04-10T06:28:24;96925.34;;;3.75;77.59
4012;BME280;2020;48.682;9.024;2023-04-10T06:30:49;96921.84;;;3.76;74.08
4012;BME280;2020;48.682;9.024;2023-04-10T06:33:15;96928.13;;;3.98;75.55
4012;BME280;2020;48.682;9.024;2023-04-10T06:35:40;96927.22;;;4.12;75.20
4012;BME280;2020;48.682;9.024;2023-04-10T06:38:06;96919.47;;;4.25;75.24
4012;BME280;2020;48.682;9.024;2023-04-10T06:40:31;96915.41;;;4.47;75.03
4012;BME280;2020;48.682;9.024;2023-04-10T06:42:58;96923.81;;;4.75;75.72
4012;BME280;2020;48.682;9.024;2023-04-10T06:45:23;96928.19;;;4.98;74.75
4012;BME280;2020;48.682;9.024;2023-04-10T06:47:48;96917.91;;;5.10;72.51
4012;BME280;2020;48.682;9.024;2023-04-10T06:50:14;96920.53;;;5.21;69.93
4012;BME280;2020;48.682;9.024;2023-04-10T06:52:39;96919.97;;;5.53;71.03
4012;BME280;2020;48.682;9.024;2023-04-10T06:55:05;96913.19;;;5.75;70.00
4012;BME280;2020;48.682;9.024;2023-04-10T06:57:30;96912.25;;;6.12;68.97
4012;BME280;2020;48.682;9.024;2023-04-10T06:59:55;96906.50;;;6.42;67.48
4012;BME280;2020;48.682;9.024;2023-04-10T07:02:21;96907.44;;;6.53;66.29
4012;BME280;2020;48.682;9.024;2023-04-10T07:04:46;96902.44;;;6.84;64.24
4012;BME280;2020;48.682;9.024;2023-04-10T07:07:11;96899.13;;;6.93;62.61
4012;BME280;2020;48.682;9.024;2023-04-10T07:09:38;96893.13;;;7.25;63.26
4012;BME280;2020;48.682;9.024;2023-04-10T07:12:03;96889.81;;;7.35;59.51
4012;BME280;2020;48.682;9.024;2023-04-10T07:14:28;96883.13;;;7.53;58.36
4012;BME280;2020;48.682;9.024;2023-04-10T07:16:54;96882.66;;;7.69;56.99
4012;BME280;2020;48.682;9.024;2023-04-10T07:19:19;96883.69;;;7.78;54.15
4012;BME280;2020;48.682;9.024;2023-04-10T07:21:45;96884.94;;;7.84;53.74
4012;BME280;2020;48.682;9.024;2023-04-10T07:24:14;96886.56;;;8.06;52.76
4012;BME280;2020;48.682;9.024;2023-04-10T07:26:39;96892.94;;;8.33;53.64
4012;BME280;2020;48.682;9.024;2023-04-10T07:29:04;96895.81;;;8.61;54.09
4012;BME280;2020;48.682;9.024;2023-04-10T07:31:30;96892.44;;;8.70;52.40
4012;BME280;2020;48.682;9.024;2023-04-10T07:33:55;96890.81;;;8.69;51.23
4012;BME280;2020;48.682;9.024;2023-04-10T07:36:20;96898.13;;;8.33;50.07
4012;BME280;2020;48.682;9.024;2023-04-10T07:38:45;96894.50;;;8.45;51.15
4012;BME280;2020;48.682;9.024;2023-04-10T07:41:11;96895.59;;;8.84;52.28
4012;BME280;2020;48.682;9.024;2023-04-10T07:43:36;96896.97;;;8.88;49.28
4012;BME280;2020;48.682;9.024;2023-04-10T07:46:01;96896.59;;;9.02;50.14
4012;BME280;2020;48.682;9.024;2023-04-10T07:48:26;96900.56;;;9.06;49.36
4012;BME280;2020;48.682;9.024;2023-04-10T07:50:52;96902.75;;;9.21;47.58
4012;BME280;2020;48.682;9.024;2023-04-10T07:53:17;96907.94;;;9.41;48.11
4012;BME280;2020;48.682;9.024;2023-04-10T07:55:44;96892.63;;;9.57;47.25
4012;BME280;2020;48.682;9.024;2023-04-10T07:58:10;96898.06;;;9.74;47.33
4012;BME280;2020;48.682;9.024;2023-04-10T08:00:35;96893.94;;;10.01;46.21
4012;BME280;2020;48.682;9.024;2023-04-10T08:03:02;96883.94;;;9.96;45.44
4012;BME280;2020;48.682;9.024;2023-04-10T08:05:27;96890.66;;;9.79;45.34
4012;BME280;2020;48.682;9.024;2023-04-10T08:07:53;96891.47;;;9.89;46.48
4012;BME280;2020;48.682;9.024;2023-04-10T08:10:18;96886.13;;;9.91;46.63
4012;BME280;2020;48.682;9.024;2023-04-10T08:12:43;96891.09;;;10.32;46.23
4012;BME280;2020;48.682;9.024;2023-04-10T08:15:09;96888.75;;;10.29;45.07
4012;BME280;2020;48.682;9.024;2023-04-10T08:17:35;96883.13;;;10.33;45.65
4012;BME280;2020;48.682;9.024;2023-04-10T08:20:00;96885.31;;;10.38;44.73
4012;BME280;2020;48.682;9.024;2023-04-10T08:22:25;96879.31;;;10.28;44.86
4012;BME280;2020;48.682;9.024;2023-04-10T08:24:50;96876.28;;;10.42;44.33
4012;BME280;2020;48.682;9.024;2023-04-10T08:27:16;96875.41;;;10.51;44.47
4012;BME280;2020;48.682;9.024;2023-04-10T08:29:41;96878.69;;;10.53;44.62
4012;BME280;2020;48.682;9.024;2023-04-10T08:32:07;96873.94;;;10.67;44.38
4012;BME280;2020;48.682;9.024;2023-04-10T08:34:33;96871.50;;;10.65;44.59
4012;BME280;2020;48.682;9.024;2023-04-10T08:36:58;96876.50;;;10.95;43.90
4012;BME280;2020;48.682;9.024;2023-04-10T08:39:23;96876.06;;;11.18;43.29
4012;BME280;2020;48.682;9.024;2023-04-10T08:41:49;96870.03;;;10.99;43.41
4012;BME280;2020;48.682;9.024;2023-04-10T08:44:15;96868.63;;;11.23;43.50
4012;BME280;2020;48.682;9.024;2023-04-10T08:46:42;96862.38;;;11.16;44.17
4012;BME280;2020;48.682;9.024;2023-04-10T08:49:30;96869.66;;;11.66;42.62
4012;BME280;2020;48.682;9.024;2023-04-10T08:51:57;96861.88;;;11.75;41.93
4012;BME280;2020;48.682;9.024;2023-04-10T08:54:31;96859.94;;;11.77;41.20
4012;BME280;2020;48.682;9.024;2023-04-10T08:56:57;96862.38;;;11.52;41.72
4012;BME280;2020;48.682;9.024;2023-04-10T08:59:26;96862.41;;;11.87;42.47
4012;BME280;2020;48.682;9.024;2023-04-10T09:01:52;96860.16;;;12.10;40.94
4012;BME280;2020;48.682;9.024;2023-04-10T09:04:18;96858.28;;;12.28;40.72
4012;BME280;2020;48.682;9.024;2023-04-10T09:06:43;96863.00;;;12.25;39.59
4012;BME280;2020;48.682;9.024;2023-04-10T09:09:08;96869.09;;;12.42;39.65
4012;BME280;2020;48.682;9.024;2023-04-10T09:12:03;96871.72;;;12.42;38.71
4012;BME280;2020;48.682;9.024;2023-04-10T09:14:32;96873.06;;;12.54;38.98
4012;BME280;2020;48.682;9.024;2023-04-10T09:17:16;96866.59;;;12.67;38.75
4012;BME280;2020;48.682;9.024;2023-04-10T09:19:47;96873.63;;;12.75;37.98
4012;BME280;2020;48.682;9.024;2023-04-10T09:22:13;96864.53;;;12.95;38.02
4012;BME280;2020;48.682;9.024;2023-04-10T09:24:40;96861.09;;;12.95;37.42
4012;BME280;2020;48.682;9.024;2023-04-10T09:27:06;96852.50;;;13.36;38.13
4012;BME280;2020;48.682;9.024;2023-04-10T09:29:58;96851.38;;;13.47;35.95
4012;BME280;2020;48.682;9.024;2023-04-10T09:32:40;96847.09;;;13.62;37.82
4012;BME280;2020;48.682;9.024;2023-04-10T09:35:07;96830.44;;;13.63;38.00
4012;BME280;2020;48.682;9.024;2023-04-10T09:37:36;96834.38;;;13.42;35.62
4012;BME280;2020;48.682;9.024;2023-04-10T09:40:02;96824.84;;;13.83;37.37
4012;BME280;2020;48.682;9.024;2023-04-10T09:42:33;96825.19;;;13.63;35.74
4012;BME280;2020;48.682;9.024;2023-04-10T09:44:59;96820.94;;;13.62;35.71
4012;BME280;2020;48.682;9.024;2023-04-10T09:47:25;96814.09;;;13.53;36.79
4012;BME280;2020;48.682;9.024;2023-04-10T09:49:56;96811.63;;;13.76;36.07
4012;BME280;2020;48.682;9.024;2023-04-10T09:52:29;96811.72;;;14.08;36.33
4012;BME280;2020;48.682;9.024;2023-04-10T09:54:57;96798.72;;;14.23;34.16
4012;BME280;2020;48.682;9.024;2023-04-10T09:57:25;96801.41;;;13.98;34.32
4012;BME280;2020;48.682;9.024;2023-04-10T09:59:52;96792.88;;;14.12;33.88
4012;BME280;2020;48.682;9.024;2023-04-10T10:02:19;96789.13;;;14.38;34.20
4012;BME280;2020;48.682;9.024;2023-04-10T10:04:46;96791.91;;;14.45;34.37
4012;BME280;2020;48.682;9.024;2023-04-10T10:07:13;96788.47;;;14.76;34.15
4012;BME280;2020;48.682;9.024;2023-04-10T10:09:40;96782.94;;;14.71;34.34
4012;BME280;2020;48.682;9.024;2023-04-10T10:12:06;96780.63;;;14.68;33.43
4012;BME280;2020;48.682;9.024;2023-04-10T10:14:33;96780.69;;;14.91;33.71
4012;BME280;2020;48.682;9.024;2023-04-10T10:17:04;96768.88;;;15.10;32.85
4012;BME280;2020;48.682;9.024;2023-04-10T10:19:52;96762.38;;;15.06;33.21
4012;BME280;2020;48.682;9.024;2023-04-10T10:22:18;96758.97;;;15.20;33.26
4012;BME280;2020;48.682;9.024;2023-04-10T10:24:45;96760.47;;;15.38;32.95
4012;BME280;2020;48.682;9.024;2023-04-10T10:27:13;96755.59;;;15.35;32.75
4012;BME280;2020;48.682;9.024;2023-04-10T10:29:43;96750.69;;;15.32;32.86
4012;BME280;2020;48.682;9.024;2023-04-10T10:32:09;96744.22;;;15.19;31.19
4012;BME280;2020;48.682;9.024;2023-04-10T10:34:35;96730.00;;;15.52;31.59
4012;BME280;2020;48.682;9.024;2023-04-10T10:37:01;96744.03;;;15.74;31.96
4012;BME280;2020;48.682;9.024;2023-04-10T10:39:35;96741.25;;;15.91;29.81
4012;BME280;2020;48.682;9.024;2023-04-10T10:45:10;96728.81;;;15.85;30.01
4012;BME280;2020;48.682;9.024;2023-04-10T10:47:45;96723.41;;;16.01;29.34
4012;BME280;2020;48.682;9.024;2023-04-10T10:50:11;96714.16;;;16.05;27.59
4012;BME280;2020;48.682;9.024;2023-04-10T10:52:49;96717.59;;;15.76;28.16
4012;BME280;2020;48.682;9.024;2023-04-10T10:58:05;96708.56;;;15.78;27.85
4012;BME280;2020;48.682;9.024;2023-04-10T11:05:58;96713.63;;;15.95;27.25
4012;BME280;2020;48.682;9.024;2023-04-10T11:08:46;96705.88;;;16.60;26.95
4012;BME280;2020;48.682;9.024;2023-04-10T11:11:24;96706.72;;;16.89;26.81
4012;BME280;2020;48.682;9.024;2023-04-10T11:19:06;96694.50;;;17.03;26.86
4012;BME280;2020;48.682;9.024;2023-04-10T11:21:33;96694.09;;;16.78;26.22
4012;BME280;2020;48.682;9.024;2023-04-10T11:31:46;96687.31;;;17.47;27.15
4012;BME280;2020;48.682;9.024;2023-04-10T11:34:18;96691.25;;;17.65;27.14
4012;BME280;2020;48.682;9.024;2023-04-10T11:36:43;96679.00;;;17.86;27.14
4012;BME280;2020;48.682;9.024;2023-04-10T11:39:11;96680.41;;;17.81;25.53
4012;BME280;2020;48.682;9.024;2023-04-10T11:41:38;96674.47;;;18.01;27.67
4012;BME280;2020;48.682;9.024;2023-04-10T11:44:06;96670.91;;;17.38;25.93
4012;BME280;2020;48.682;9.024;2023-04-10T11:46:36;96669.06;;;17.81;26.18
4012;BME280;2020;48.682;9.024;2023-04-10T11:49:03;96678.22;;;16.93;24.08
4012;BME280;2020;48.682;9.024;2023-04-10T11:51:30;96665.81;;;17.37;26.19
4012;BME280;2020;48.682;9.024;2023-04-10T11:54:18;96660.28;;;17.67;23.86
4012;BME280;2020;48.682;9.024;2023-04-10T11:57:01;96659.53;;;17.38;24.26
4012;BME280;2020;48.682;9.024;2023-04-10T11:59:28;96654.41;;;17.65;24.20
4012;BME280;2020;48.682;9.024;2023-04-10T12:02:05;96637.59;;;18.01;25.26
4012;BME280;2020;48.682;9.024;2023-04-10T12:04:32;96639.28;;;18.29;23.68
4012;BME280;2020;48.682;9.024;2023-04-10T12:06:58;96642.41;;;17.91;23.41
4012;BME280;2020;48.682;9.024;2023-04-10T12:09:23;96631.00;;;17.83;23.69
4012;BME280;2020;48.682;9.024;2023-04-10T12:11:57;96618.34;;;18.07;24.29
4012;BME280;2020;48.682;9.024;2023-04-10T12:16:56;96627.75;;;18.70;24.57
4012;BME280;2020;48.682;9.024;2023-04-10T12:19:22;96623.06;;;18.32;22.61
4012;BME280;2020;48.682;9.024;2023-04-10T12:21:48;96623.44;;;18.22;22.38
4012;BME280;2020;48.682;9.024;2023-04-10T12:24:39;96628.09;;;17.65;22.84
4012;BME280;2020;48.682;9.024;2023-04-10T12:27:05;96609.09;;;17.76;23.09
4012;BME280;2020;48.682;9.024;2023-04-10T12:29:30;96620.47;;;17.83;23.52
4012;BME280;2020;48.682;9.024;2023-04-10T12:31:56;96608.66;;;18.15;23.15
4012;BME280;2020;48.682;9.024;2023-04-10T12:34:21;96614.84;;;17.93;21.75
4012;BME280;2020;48.682;9.024;2023-04-10T12:36:51;96608.25;;;18.24;22.44
4012;BME280;2020;48.682;9.024;2023-04-10T12:39:23;96602.78;;;18.12;24.08
4012;BME280;2020;48.682;9.024;2023-04-10T12:41:49;96599.94;;;18.07;23.30
4012;BME280;2020;48.682;9.024;2023-04-10T12:44:14;96596.72;;;18.32;23.42
4012;BME280;2020;48.682;9.024;2023-04-10T12:46:41;96607.63;;;18.02;23.50
4012;BME280;2020;48.682;9.024;2023-04-10T12:49:17;96592.09;;;17.72;24.20
4012;BME280;2020;48.682;9.024;2023-04-10T12:54:08;96587.25;;;17.82;24.87
4012;BME280;2020;48.682;9.024;2023-04-10T12:56:41;96583.44;;;17.85;23.10
4012;BME280;2020;48.682;9.024;2023-04-10T12:59:06;96577.03;;;17.52;24.66
4012;BME280;2020;48.682;9.024;2023-04-10T13:01:32;96583.19;;;17.73;24.83
4012;BME280;2020;48.682;9.024;2023-04-10T13:03:57;96589.66;;;17.77;23.58
4012;BME280;2020;48.682;9.024;2023-04-10T13:06:22;96588.44;;;17.73;23.24
4012;BME280;2020;48.682;9.024;2023-04-10T13:08:48;96576.25;;;17.59;24.40
4012;BME280;2020;48.682;9.024;2023-04-10T13:11:16;96571.84;;;17.79;24.92
4012;BME280;2020;48.682;9.024;2023-04-10T13:13:41;96567.94;;;18.10;24.08
4012;BME280;2020;48.682;9.024;2023-04-10T13:16:07;96562.09;;;17.60;24.03
4012;BME280;2020;48.682;9.024;2023-04-10T13:18:36;96567.34;;;17.60;23.68
4012;BME280;2020;48.682;9.024;2023-04-10T13:21:02;96562.94;;;17.80;23.48
4012;BME280;2020;48.682;9.024;2023-04-10T13:23:28;96554.75;;;18.24;24.13
4012;BME280;2020;48.682;9.024;2023-04-10T13:25:53;96560.53;;;17.86;22.92
4012;BME280;2020;48.682;9.024;2023-04-10T13:28:20;96557.75;;;17.94;23.34
4012;BME280;2020;48.682;9.024;2023-04-10T13:30:46;96552.88;;;17.97;23.07
4012;BME280;2020;48.682;9.024;2023-04-10T13:33:11;96554.16;;;18.08;23.27
4012;BME280;2020;48.682;9.024;2023-04-10T13:35:37;96546.88;;;18.24;22.98
4012;BME280;2020;48.682;9.024;2023-04-10T13:38:03;96551.19;;;17.76;23.70
4012;BME280;2020;48.682;9.024;2023-04-10T13:40:29;96542.69;;;17.74;24.09
4012;BME280;2020;48.682;9.024;2023-04-10T13:42:54;96538.75;;;18.25;24.27
4012;BME280;2020;48.682;9.024;2023-04-10T13:45:20;96538.31;;;17.95;24.45
4012;BME280;2020;48.682;9.024;2023-04-10T13:47:45;96536.22;;;17.83;25.25
4012;BME280;2020;48.682;9.024;2023-04-10T13:50:10;96524.41;;;17.52;24.96
4012;BME280;2020;48.682;9.024;2023-04-10T13:52:36;96527.25;;;17.58;24.54
4012;BME280;2020;48.682;9.024;2023-04-10T13:55:01;96521.22;;;17.57;24.88
4012;BME280;2020;48.682;9.024;2023-04-10T13:57:26;96523.19;;;17.48;24.38
4012;BME280;2020;48.682;9.024;2023-04-10T13:59:52;96520.81;;;17.67;24.35
4012;BME280;2020;48.682;9.024;2023-04-10T14:02:17;96523.72;;;17.23;23.63
4012;BME280;2020;48.682;9.024;2023-04-10T14:04:42;96530.03;;;17.36;24.48
4012;BME280;2020;48.682;9.024;2023-04-10T14:07:10;96524.97;;;16.92;23.94